Time;durP1;ratioP1;P1;durP2;ratioP2;P2;SDS_P1;SDS_P2;PMS_P1;PMS_P2;Temp;Humidity;BMP_temperature;BMP_pressure;BME280_temperature;BME280_humidity;BME280_pressure;Samples;Min_cycle;Max_cycle;Signal;HPM_P1;HPM_P2
2021/12/20 00:01:05;;;;;;;47.65;25.10;;;;;;;1.48;72.43;99420.47;5069954;28;20036;-20
2021/12/20 00:03:31;;;;;;;48.00;25.70;;;;;;;1.18;73.93;99432.63;5052027;28;20040;-20
2021/12/20 00:05:56;;;;;;;44.95;24.83;;;;;;;1.30;74.00;99438.31;5070164;28;20035;-21
2021/12/20 00:08:22;;;;;;;49.80;24.88;;;;;;;1.42;73.75;99444.81;5070084;28;20029;-20
2021/12/20 00:10:47;;;;;;;61.67;30.17;;;;;;;1.37;73.50;99419.06;5051825;28;20029;-20
2021/12/20 00:13:13;;;;;;;56.88;28.52;;;;;;;1.37;73.72;99441.91;5069768;28;20043;-20
2021/12/20 00:15:38;;;;;;;61.03;36.63;;;;;;;1.77;72.30;99432.06;5069524;28;20028;-21
2021/12/20 00:18:04;;;;;;;48.47;24.90;;;;;;;1.54;72.70;99448.66;5069901;28;20051;-20
2021/12/20 00:20:29;;;;;;;45.47;23.20;;;;;;;1.04;73.21;99426.31;5069648;28;20033;-21
2021/12/20 00:22:55;;;;;;;44.28;24.00;;;;;;;1.27;73.58;99436.03;5069044;28;20036;-21
2021/12/20 00:25:20;;;;;;;49.55;23.52;;;;;;;1.42;72.91;99455.31;5069013;28;20044;-22
2021/12/20 00:27:46;;;;;;;42.40;22.95;;;;;;;1.57;71.71;99448.31;5069184;28;20416;-21
2021/12/20 00:30:11;;;;;;;49.08;24.95;;;;;;;1.15;73.04;99460.06;5069373;28;20057;-20
2021/12/20 00:32:37;;;;;;;41.15;20.02;;;;;;;0.87;74.91;99441.34;5069581;28;20526;-20
2021/12/20 00:35:03;;;;;;;37.92;20.02;;;;;;;1.39;73.84;99466.19;5051579;28;20098;-21
2021/12/20 00:40:22;;;;;;;32.40;17.80;;;;;;;1.56;73.31;99477.41;5069326;28;20040;-21
2021/12/20 00:42:49;;;;;;;30.67;16.20;;;;;;;1.17;74.72;99468.59;5069422;28;20020;-20
2021/12/20 00:45:14;;;;;;;35.53;18.17;;;;;;;1.17;75.01;99468.59;5051069;28;20028;-21
2021/12/20 00:47:40;;;;;;;37.88;19.08;;;;;;;1.12;74.58;99449.91;5069176;28;20044;-21
2021/12/20 00:50:06;;;;;;;54.17;27.20;;;;;;;1.19;74.14;99444.78;5051395;28;20035;-20
2021/12/20 00:52:31;;;;;;;399.95;204.40;;;;;;;1.42;73.44;99465.81;5069053;28;20047;-21
2021/12/20 00:54:57;;;;;;;450.77;232.18;;;;;;;1.27;74.16;99457.03;5050938;28;20408;-21
2021/12/20 00:57:22;;;;;;;191.20;99.93;;;;;;;1.20;74.42;99447.22;5051032;28;20082;-21
2021/12/20 00:59:48;;;;;;;101.30;64.82;;;;;;;0.95;76.11;99448.38;5068721;28;20039;-21
2021/12/20 01:02:13;;;;;;;50.60;29.50;;;;;;;0.55;76.27;99431.78;5068481;28;20024;-21
2021/12/20 01:04:39;;;;;;;30.85;16.58;;;;;;;0.62;76.69;99432.75;5068857;28;20485;-20
2021/12/20 01:07:04;;;;;;;31.83;16.55;;;;;;;0.56;75.77;99454.44;5068602;28;20036;-20
2021/12/20 01:09:30;;;;;;;34.30;17.15;;;;;;;0.97;75.80;99467.38;5068325;28;20040;-21
2021/12/20 01:12:02;;;;;;;32.72;17.27;;;;;;;0.85;75.63;99455.63;5068423;28;20028;-21
2021/12/20 01:14:30;;;;;;;30.75;15.48;;;;;;;1.18;74.23;99451.03;5050687;28;20043;-20
2021/12/20 01:17:02;;;;;;;30.35;15.43;;;;;;;1.09;74.29;99459.97;5068394;28;20484;-20
2021/12/20 01:19:27;;;;;;;29.65;15.38;;;;;;;0.79;74.47;99457.94;5051322;28;20066;-21
2021/12/20 01:21:53;;;;;;;30.33;15.45;;;;;;;0.99;74.46;99462.78;5068599;28;20033;-21
2021/12/20 01:24:18;;;;;;;30.85;15.40;;;;;;;0.89;75.20;99444.63;5050571;28;20033;-20
2021/12/20 01:26:44;;;;;;;32.10;15.68;;;;;;;1.37;75.01;99461.09;5068527;28;20028;-20
2021/12/20 01:29:09;;;;;;;30.85;15.43;;;;;;;1.37;74.95;99457.66;5068159;28;20411;-21
2021/12/20 01:31:34;;;;;;;34.10;16.75;;;;;;;1.46;74.20;99461.84;5067849;28;20024;-20
2021/12/20 01:34:00;;;;;;;28.35;15.90;;;;;;;0.78;77.01;99458.94;5068025;28;20032;-20
2021/12/20 01:36:25;;;;;;;31.27;17.02;;;;;;;0.47;77.88;99455.44;5050264;28;20032;-20
2021/12/20 01:38:51;;;;;;;31.27;16.83;;;;;;;0.22;78.51;99463.34;5068114;28;20035;-20
2021/12/20 01:41:16;;;;;;;28.88;14.50;;;;;;;0.54;77.42;99467.72;5068528;28;20787;-21
2021/12/20 01:43:42;;;;;;;23.92;13.35;;;;;;;0.62;76.85;99440.63;5067958;28;20536;-20
2021/12/20 01:46:07;;;;;;;27.15;14.88;;;;;;;1.19;75.07;99456.13;5050099;28;20028;-23
2021/12/20 01:48:33;;;;;;;28.17;14.13;;;;;;;1.38;74.82;99464.53;5068333;28;20055;-21
2021/12/20 01:53:37;;;;;;;27.77;13.45;;;;;;;1.12;76.51;99465.66;5068092;28;20038;-20
2021/12/20 01:56:02;;;;;;;24.30;13.20;;;;;;;1.09;75.28;99442.38;5050383;28;20032;-20
2021/12/20 01:58:28;;;;;;;27.08;14.38;;;;;;;1.01;76.33;99431.94;5049820;28;20036;-22
2021/12/20 02:03:30;;;;;;;25.27;13.75;;;;;;;1.32;76.34;99454.72;5067729;28;20048;-20
2021/12/20 02:05:58;;;;;;;24.92;13.65;;;;;;;1.20;75.97;99426.22;5068134;28;20055;-21
2021/12/20 02:08:29;;;;;;;24.67;13.13;;;;;;;1.46;75.86;99425.06;5068016;28;20535;-21
2021/12/20 02:11:03;;;;;;;24.88;13.30;;;;;;;1.69;74.41;99419.78;5049863;28;20037;-21
2021/12/20 02:13:29;;;;;;;25.77;13.70;;;;;;;1.82;74.53;99424.47;5067799;28;20028;-21
2021/12/20 02:15:58;;;;;;;25.92;13.20;;;;;;;1.72;74.60;99424.72;5067919;28;20051;-20
2021/12/20 02:18:23;;;;;;;28.25;13.57;;;;;;;1.94;74.10;99430.09;5067773;28;20048;-21
2021/12/20 02:20:49;;;;;;;23.55;12.52;;;;;;;1.64;74.05;99400.31;5067723;28;20028;-20
2021/12/20 02:23:15;;;;;;;24.20;13.13;;;;;;;1.93;73.55;99426.66;5067768;28;20036;-21
2021/12/20 02:25:40;;;;;;;23.58;13.45;;;;;;;1.80;73.57;99418.56;5067513;28;20412;-21
2021/12/20 02:28:13;;;;;;;26.92;13.07;;;;;;;1.76;73.59;99419.91;5067533;28;20041;-20
2021/12/20 02:30:51;;;;;;;25.55;12.82;;;;;;;1.86;72.96;99390.72;5067799;28;20067;-20
2021/12/20 02:38:50;;;;;;;23.50;12.45;;;;;;;2.10;72.27;99408.91;5067621;28;20075;-21
2021/12/20 02:41:22;;;;;;;24.40;12.23;;;;;;;2.17;72.08;99411.66;5067420;28;20557;-21
2021/12/20 02:43:54;;;;;;;22.75;11.82;;;;;;;1.99;71.96;99401.47;5067112;28;20037;-22
2021/12/20 02:48:52;;;;;;;21.80;11.90;;;;;;;1.74;73.24;99414.84;5071614;28;20020;-21
2021/12/20 02:51:18;;;;;;;46.08;26.52;;;;;;;1.78;73.13;99412.69;5071584;28;20024;-20
2021/12/20 02:53:43;;;;;;;37.47;19.95;;;;;;;1.78;72.82;99412.69;5071198;28;20040;-20
2021/12/20 02:56:09;;;;;;;78.35;38.55;;;;;;;1.30;74.48;99415.50;5071756;28;20048;-21
2021/12/20 02:58:34;;;;;;;46.97;23.33;;;;;;;1.50;74.26;99410.59;5071436;28;20025;-21
2021/12/20 03:01:00;;;;;;;44.58;20.95;;;;;;;1.52;74.66;99403.34;5071379;28;20098;-21
2021/12/20 03:03:25;;;;;;;36.03;18.38;;;;;;;1.43;75.04;99404.41;5071179;28;20035;-20
2021/12/20 03:05:51;;;;;;;36.55;20.27;;;;;;;1.86;73.81;99396.00;5071076;28;20032;-20
2021/12/20 03:08:20;;;;;;;48.05;23.58;;;;;;;1.62;73.96;99407.56;5070950;28;20547;-20
2021/12/20 03:10:45;;;;;;;42.15;22.83;;;;;;;1.51;74.06;99416.66;5053636;28;20050;-21
2021/12/20 03:13:11;;;;;;;31.88;16.98;;;;;;;1.66;73.36;99400.94;5071053;28;20415;-20
2021/12/20 03:15:36;;;;;;;41.03;19.92;;;;;;;1.72;73.89;99398.44;5070642;28;20028;-20
2021/12/20 03:18:02;;;;;;;24.17;13.68;;;;;;;1.89;72.50;99383.31;5071092;28;20040;-21
2021/12/20 03:20:27;;;;;;;33.80;17.75;;;;;;;2.20;71.76;99401.56;5053016;28;20033;-21
2021/12/20 03:22:53;;;;;;;30.27;15.63;;;;;;;2.11;71.65;99375.53;5070808;28;20470;-21
2021/12/20 03:25:18;;;;;;;28.38;14.73;;;;;;;2.07;71.97;99404.00;5070736;28;20028;-21
2021/12/20 03:27:44;;;;;;;26.88;14.80;;;;;;;2.05;72.39;99402.56;5070672;28;20040;-20
2021/12/20 03:30:11;;;;;;;27.70;15.32;;;;;;;1.91;73.22;99397.09;5070462;28;20048;-20
2021/12/20 03:32:36;;;;;;;26.05;14.13;;;;;;;1.93;73.72;99404.81;5070548;28;20052;-22
2021/12/20 03:35:02;;;;;;;25.73;14.07;;;;;;;1.94;73.58;99402.00;5052621;28;20101;-20
2021/12/20 03:37:28;;;;;;;24.88;13.57;;;;;;;1.90;73.00;99420.94;5070641;28;20040;-21
2021/12/20 03:39:53;;;;;;;23.35;13.38;;;;;;;1.98;73.48;99411.16;5070902;28;20040;-22
2021/12/20 03:42:19;;;;;;;23.23;12.52;;;;;;;1.76;73.06;99377.88;5070539;28;20028;-21
2021/12/20 03:44:46;;;;;;;21.40;11.65;;;;;;;1.99;73.79;99410.16;5070713;28;20136;-20
2021/12/20 03:47:12;;;;;;;20.50;10.40;;;;;;;2.21;72.85;99397.13;5070577;28;20498;-21
2021/12/20 03:49:38;;;;;;;20.50;10.18;;;;;;;2.24;72.98;99411.72;5070095;28;20044;-20
2021/12/20 03:52:07;;;;;;;18.90;9.63;;;;;;;2.01;74.69;99410.00;5070249;28;20093;-21
2021/12/20 03:54:33;;;;;;;16.90;9.10;;;;;;;1.80;75.98;99394.91;5053087;28;20032;-20
2021/12/20 03:56:58;;;;;;;14.98;7.85;;;;;;;1.86;76.48;99386.31;5070185;28;20028;-20
2021/12/20 03:59:24;;;;;;;16.42;8.80;;;;;;;2.21;76.53;99408.47;5069688;28;20044;-20
2021/12/20 04:01:50;;;;;;;13.43;7.50;;;;;;;2.58;75.85;99422.53;5070346;28;20036;-20
2021/12/20 04:04:16;;;;;;;11.57;6.53;;;;;;;2.72;75.41;99417.44;5070254;28;20064;-21
2021/12/20 04:06:41;;;;;;;9.93;6.53;;;;;;;3.01;74.41;99413.94;5070094;28;20032;-20
2021/12/20 04:09:07;;;;;;;10.00;5.05;;;;;;;3.19;72.99;99421.44;5070075;28;20396;-21
2021/12/20 04:11:32;;;;;;;11.82;6.00;;;;;;;3.39;72.86;99413.69;5069735;28;20025;-21
2021/12/20 04:13:58;;;;;;;8.93;5.00;;;;;;;3.48;72.57;99415.22;5051829;28;20042;-20
2021/12/20 04:16:24;;;;;;;10.43;5.88;;;;;;;3.65;71.47;99425.50;5070022;28;20522;-20
2021/12/20 04:18:49;;;;;;;10.88;5.88;;;;;;;3.59;71.59;99406.78;5069760;28;20033;-21
2021/12/20 04:21:15;;;;;;;9.93;5.60;;;;;;;3.54;71.40;99387.28;5069700;28;20496;-20
2021/12/20 04:23:40;;;;;;;9.55;5.15;;;;;;;3.61;71.01;99399.50;5069581;28;20043;-21
2021/12/20 04:26:06;;;;;;;7.88;4.65;;;;;;;3.67;70.58;99408.47;5051347;28;20040;-20
2021/12/20 04:28:31;;;;;;;10.13;6.10;;;;;;;3.82;70.26;99416.31;5069197;28;20080;-22
2021/12/20 04:30:57;;;;;;;10.55;6.03;;;;;;;3.85;69.86;99415.94;5069721;28;20942;-20
2021/12/20 04:33:22;;;;;;;10.43;6.38;;;;;;;3.79;70.81;99427.25;5069501;28;20028;-20
2021/12/20 04:35:48;;;;;;;8.30;4.93;;;;;;;3.90;69.48;99424.06;5069161;28;20024;-21
2021/12/20 04:38:14;;;;;;;9.77;5.50;;;;;;;4.00;69.72;99419.31;5069432;28;20028;-21
2021/12/20 04:40:39;;;;;;;9.38;5.18;;;;;;;4.06;68.78;99427.44;5069456;28;20028;-20
2021/12/20 04:43:05;;;;;;;8.38;4.75;;;;;;;4.01;68.45;99405.09;5069195;28;20551;-21
2021/12/20 04:45:31;;;;;;;9.57;5.35;;;;;;;4.12;68.84;99424.84;5068903;28;20035;-20
2021/12/20 04:47:56;;;;;;;11.82;6.70;;;;;;;4.12;68.45;99400.28;5069179;28;20032;-20
2021/12/20 04:50:22;;;;;;;10.77;6.68;;;;;;;4.26;68.30;99428.41;5069203;28;20040;-21
2021/12/20 04:52:48;;;;;;;12.10;6.97;;;;;;;4.20;68.23;99411.50;5069260;28;20111;-20
2021/12/20 04:55:14;;;;;;;11.00;7.10;;;;;;;4.23;68.01;99407.69;5051321;28;20116;-21
2021/12/20 04:57:39;;;;;;;11.43;6.65;;;;;;;4.33;67.71;99425.81;5068640;28;20481;-20
2021/12/20 05:00:07;;;;;;;12.55;7.45;;;;;;;4.31;68.20;99415.47;5069317;28;20035;-20
2021/12/20 05:02:32;;;;;;;10.65;6.22;;;;;;;4.31;67.98;99426.00;5068754;28;20120;-21
2021/12/20 05:04:58;;;;;;;11.52;7.10;;;;;;;4.32;67.61;99414.44;5068628;28;20082;-20
2021/12/20 05:07:26;;;;;;;12.00;6.80;;;;;;;4.32;67.88;99427.63;5068440;28;20420;-21
2021/12/20 05:09:57;;;;;;;12.00;6.40;;;;;;;4.36;67.49;99418.31;5068222;28;20385;-21
2021/12/20 05:12:22;;;;;;;11.98;6.60;;;;;;;4.21;67.75;99409.72;5068448;28;20040;-20
2021/12/20 05:14:48;;;;;;;11.60;6.88;;;;;;;4.38;66.99;99429.50;5068463;28;20543;-20
2021/12/20 05:17:13;;;;;;;10.98;6.30;;;;;;;4.27;67.22;99419.50;5068699;28;20037;-20
2021/12/20 05:19:40;;;;;;;12.18;7.07;;;;;;;4.38;67.55;99431.31;5069197;28;20064;-20
2021/12/20 05:22:05;;;;;;;10.45;5.63;;;;;;;4.43;67.14;99450.03;5069546;28;20052;-20
2021/12/20 05:24:31;;;;;;;14.80;6.72;;;;;;;4.41;67.22;99444.97;5069788;28;20040;-20
2021/12/20 05:26:56;;;;;;;13.27;7.30;;;;;;;4.50;66.56;99452.72;5051464;28;20101;-20
2021/12/20 05:29:23;;;;;;;12.13;6.95;;;;;;;4.42;66.87;99430.75;5051305;28;20060;-20
2021/12/20 05:31:49;;;;;;;11.02;6.28;;;;;;;4.51;67.52;99444.59;5069388;28;20031;-20
2021/12/20 05:34:14;;;;;;;15.50;8.38;;;;;;;4.58;66.68;99452.56;5069082;28;20032;-20
2021/12/20 05:36:40;;;;;;;12.55;6.80;;;;;;;4.58;67.08;99449.94;5068970;28;20021;-20
2021/12/20 05:39:05;;;;;;;13.10;6.82;;;;;;;4.57;66.63;99445.66;5069470;28;20024;-21
2021/12/20 05:41:31;;;;;;;10.85;6.18;;;;;;;4.46;67.65;99427.72;5068767;28;20031;-20
2021/12/20 05:43:56;;;;;;;9.55;6.60;;;;;;;4.54;66.65;99438.13;5069182;28;20029;-20
2021/12/20 05:46:22;;;;;;;12.65;6.60;;;;;;;4.52;67.09;99456.81;5069340;28;20476;-20
2021/12/20 05:48:47;;;;;;;11.27;6.22;;;;;;;4.51;67.17;99454.34;5069022;28;20064;-20
2021/12/20 05:51:13;;;;;;;13.32;7.28;;;;;;;4.59;67.38;99464.75;5069091;28;20472;-20
2021/12/20 05:53:38;;;;;;;11.23;6.05;;;;;;;4.45;67.63;99448.00;5069052;28;20050;-21
2021/12/20 05:56:04;;;;;;;11.48;6.82;;;;;;;4.59;66.99;99486.69;5069363;28;20082;-20
2021/12/20 05:58:29;;;;;;;27.60;14.10;;;;;;;4.65;66.80;99471.91;5051136;28;20024;-20
2021/12/20 06:00:55;;;;;;;14.35;7.72;;;;;;;4.60;66.48;99466.41;5069224;28;20028;-21
2021/12/20 06:03:20;;;;;;;12.02;7.68;;;;;;;4.66;66.03;99462.97;5069086;28;20037;-20
2021/12/20 06:05:46;;;;;;;10.05;5.88;;;;;;;4.74;65.45;99478.66;5068780;28;20400;-20
2021/12/20 06:08:11;;;;;;;11.82;7.18;;;;;;;4.65;66.23;99453.41;5068902;28;20025;-20
2021/12/20 06:10:37;;;;;;;9.32;5.55;;;;;;;4.71;65.98;99467.66;5068762;28;20021;-20
2021/12/20 06:13:03;;;;;;;9.77;5.78;;;;;;;4.76;65.60;99492.50;5068587;28;20064;-20
2021/12/20 06:15:28;;;;;;;10.25;5.93;;;;;;;4.74;65.51;99478.66;5068696;28;20063;-21
2021/12/20 06:17:54;;;;;;;8.13;5.35;;;;;;;4.74;65.38;99483.94;5068747;28;20040;-20
2021/12/20 06:20:19;;;;;;;10.80;6.35;;;;;;;4.80;65.91;99477.03;5069004;28;20087;-20
2021/12/20 06:22:45;;;;;;;10.88;6.28;;;;;;;4.87;66.02;99498.22;5071514;28;20369;-20
2021/12/20 06:25:11;;;;;;;10.48;6.57;;;;;;;4.75;65.79;99468.91;5055128;28;20035;-20
2021/12/20 06:27:36;;;;;;;10.57;5.78;;;;;;;4.75;65.96;99459.16;5072507;28;20041;-20
2021/12/20 06:30:03;;;;;;;10.63;6.05;;;;;;;4.92;66.12;99474.66;5072543;28;20063;-20
2021/12/20 06:32:28;;;;;;;10.65;5.70;;;;;;;4.89;66.25;99469.78;5072429;28;20858;-20
2021/12/20 06:34:54;;;;;;;11.18;5.65;;;;;;;4.91;66.06;99480.97;5054959;28;20060;-21
2021/12/20 06:37:20;;;;;;;12.07;6.07;;;;;;;4.94;65.36;99485.84;5072936;28;20040;-22
2021/12/20 06:39:45;;;;;;;11.95;6.38;;;;;;;4.96;65.13;99497.84;5072532;28;20120;-20
2021/12/20 06:42:11;;;;;;;9.25;5.22;;;;;;;4.97;65.18;99511.91;5072694;28;20033;-20
2021/12/20 06:44:37;;;;;;;7.82;4.45;;;;;;;5.00;65.40;99491.16;5072462;28;20028;-20
2021/12/20 06:47:02;;;;;;;9.32;5.38;;;;;;;4.98;65.44;99489.75;5072394;28;20087;-20
2021/12/20 06:49:28;;;;;;;19.08;5.82;;;;;;;5.02;65.54;99490.97;5072201;28;20025;-20
2021/12/20 06:51:56;;;;;;;10.55;6.35;;;;;;;4.98;64.69;99489.75;5054524;28;20036;-20
2021/12/20 06:54:21;;;;;;;11.43;6.85;;;;;;;4.87;65.20;99474.47;5072175;28;20021;-20
2021/12/20 06:56:46;;;;;;;12.23;6.18;;;;;;;5.03;66.06;99511.13;5072396;28;20036;-20
2021/12/20 06:59:12;;;;;;;9.50;5.30;;;;;;;5.05;65.27;99503.81;5072159;28;20480;-20
2021/12/20 07:01:38;;;;;;;10.93;6.47;;;;;;;5.11;65.06;99502.19;5070809;28;20082;-20
2021/12/20 07:04:04;;;;;;;11.32;6.97;;;;;;;5.10;64.93;99477.59;5071424;28;20025;-20
2021/12/20 07:06:29;;;;;;;14.32;9.43;;;;;;;5.05;65.49;99480.03;5071083;28;20025;-20
2021/12/20 07:08:55;;;;;;;13.50;7.70;;;;;;;5.08;65.82;99482.25;5071171;28;20398;-21
2021/12/20 07:11:20;;;;;;;13.82;7.63;;;;;;;5.16;63.83;99492.66;5071395;28;20044;-20
2021/12/20 07:13:46;;;;;;;11.27;6.03;;;;;;;5.01;64.03;99463.75;5070927;28;20032;-20
2021/12/20 07:16:12;;;;;;;11.40;7.00;;;;;;;5.42;63.88;99483.19;5070839;28;20036;-20
2021/12/20 07:18:38;;;;;;;14.18;8.23;;;;;;;5.77;61.94;99504.22;5071154;28;20049;-21
2021/12/20 07:21:03;;;;;;;11.63;6.00;;;;;;;5.89;61.38;99505.25;5071094;28;20032;-20
2021/12/20 07:23:29;;;;;;;10.63;5.68;;;;;;;5.71;61.94;99510.31;5070838;28;20036;-20
2021/12/20 07:25:54;;;;;;;9.40;5.32;;;;;;;5.74;61.75;99502.81;5052773;28;20036;-20
2021/12/20 07:28:20;;;;;;;9.93;5.40;;;;;;;5.75;61.71;99508.91;5070717;28;20064;-20
2021/12/20 07:30:46;;;;;;;10.45;5.53;;;;;;;5.66;62.64;99492.41;5070799;28;20089;-21
2021/12/20 07:33:11;;;;;;;10.68;5.70;;;;;;;5.68;62.10;99500.13;5069989;28;20024;-20
2021/12/20 07:35:37;;;;;;;8.70;5.07;;;;;;;5.88;61.68;99516.84;5070582;28;20029;-21
2021/12/20 07:38:03;;;;;;;8.13;4.82;;;;;;;5.82;61.71;99504.44;5070556;28;20028;-20
2021/12/20 07:40:29;;;;;;;9.30;5.22;;;;;;;5.76;62.69;99507.88;5070434;28;20060;-20
2021/12/20 07:42:55;;;;;;;7.40;4.43;;;;;;;5.74;61.37;99515.19;5070701;28;20059;-20
2021/12/20 07:45:20;;;;;;;8.15;4.28;;;;;;;5.73;61.15;99513.59;5070386;28;20033;-20
2021/12/20 07:47:49;;;;;;;9.68;5.15;;;;;;;5.79;61.67;99518.06;5070109;28;20032;-21
2021/12/20 07:50:16;;;;;;;8.27;4.10;;;;;;;5.70;61.60;99498.09;5070063;28;20447;-20
2021/12/20 07:52:42;;;;;;;8.70;4.70;;;;;;;5.86;61.47;99521.53;5070198;28;20052;-20
2021/12/20 07:55:08;;;;;;;8.25;4.45;;;;;;;5.89;61.06;99521.16;5070515;28;20079;-20
2021/12/20 07:57:33;;;;;;;9.48;5.90;;;;;;;5.91;61.22;99520.94;5069740;28;20035;-20
2021/12/20 07:59:59;;;;;;;16.67;8.65;;;;;;;5.81;61.40;99500.97;5070047;28;20028;-20
2021/12/20 08:02:24;;;;;;;14.40;7.00;;;;;;;5.97;61.67;99526.28;5070081;28;20462;-20
2021/12/20 08:04:51;;;;;;;11.52;6.75;;;;;;;6.03;61.35;99506.94;5070195;28;20032;-21
2021/12/20 08:07:18;;;;;;;12.60;7.15;;;;;;;5.98;60.80;99513.84;5069936;28;20036;-21
2021/12/20 08:09:43;;;;;;;7.13;4.70;;;;;;;6.06;61.03;99512.84;5069695;28;20499;-21
2021/12/20 08:12:09;;;;;;;7.47;4.82;;;;;;;6.03;60.66;99519.34;5069868;28;20480;-20
2021/12/20 08:14:35;;;;;;;7.53;4.10;;;;;;;6.11;60.58;99520.97;5069935;28;20509;-20
2021/12/20 08:17:00;;;;;;;6.60;4.13;;;;;;;6.14;59.84;99516.09;5069968;28;20450;-21
2021/12/20 08:19:26;;;;;;;8.38;4.28;;;;;;;6.39;59.55;99518.94;5069731;28;20496;-20
2021/12/20 08:21:51;;;;;;;7.93;4.30;;;;;;;6.29;60.02;99507.94;5069531;28;20035;-20
2021/12/20 08:24:17;;;;;;;6.88;3.88;;;;;;;6.28;59.20;99522.22;5069657;28;20094;-20
2021/12/20 08:26:42;;;;;;;6.45;3.47;;;;;;;6.20;59.68;99525.06;5069405;28;20439;-21
2021/12/20 08:29:08;;;;;;;5.90;3.53;;;;;;;6.13;59.88;99524.22;5051189;28;20064;-21
2021/12/20 08:31:36;;;;;;;7.35;3.83;;;;;;;6.12;60.02;99490.84;5069415;28;20081;-20
2021/12/20 08:34:02;;;;;;;7.25;3.90;;;;;;;6.22;59.58;99496.56;5069459;28;20123;-20
2021/12/20 08:36:27;;;;;;;5.20;3.63;;;;;;;6.33;59.98;99509.16;5069447;28;20029;-20
2021/12/20 08:38:53;;;;;;;6.57;3.78;;;;;;;6.57;59.80;99538.69;5069780;28;20050;-21
2021/12/20 08:41:18;;;;;;;6.95;3.00;;;;;;;6.56;59.09;99526.47;5069040;28;20029;-20
2021/12/20 08:43:44;;;;;;;5.68;3.10;;;;;;;6.43;59.39;99503.44;5068772;28;20097;-21
2021/12/20 08:46:10;;;;;;;6.15;3.60;;;;;;;6.51;59.04;99511.19;5068684;28;20086;-20
2021/12/20 08:48:36;;;;;;;6.30;4.07;;;;;;;6.76;59.22;99529.91;5069373;28;20119;-20
2021/12/20 08:51:02;;;;;;;5.47;3.00;;;;;;;7.07;58.29;99509.84;5069081;28;20124;-20
2021/12/20 08:53:27;;;;;;;5.72;3.15;;;;;;;7.43;57.17;99535.00;5068954;28;20109;-20
2021/12/20 08:55:53;;;;;;;5.82;3.83;;;;;;;7.63;57.67;99514.47;5069038;28;20039;-21
2021/12/20 08:58:18;;;;;;;7.63;3.28;;;;;;;7.83;55.50;99524.16;5068627;28;20035;-20
2021/12/20 09:00:44;;;;;;;5.47;2.85;;;;;;;8.05;55.46;99527.28;5069373;28;20086;-20
2021/12/20 09:03:10;;;;;;;5.03;3.15;;;;;;;8.13;54.79;99523.53;5068757;28;20028;-20
2021/12/20 09:05:35;;;;;;;4.55;2.63;;;;;;;8.07;53.69;99537.69;5068466;28;20036;-20
2021/12/20 09:08:01;;;;;;;6.18;3.17;;;;;;;8.08;55.24;99510.09;5069263;28;20033;-20
2021/12/20 09:10:27;;;;;;;5.47;2.92;;;;;;;8.22;53.84;99523.06;5050936;28;20032;-20
2021/12/20 09:12:53;;;;;;;5.85;2.90;;;;;;;8.10;54.14;99529.28;5068663;28;20767;-21
2021/12/20 09:15:18;;;;;;;5.95;2.20;;;;;;;7.95;54.13;99505.72;5068753;28;20025;-20
2021/12/20 09:17:45;;;;;;;5.05;2.60;;;;;;;8.23;54.84;99507.94;5068374;28;20702;-20
2021/12/20 09:20:11;;;;;;;4.20;2.58;;;;;;;8.48;54.09;99525.72;5068588;28;20032;-20
2021/12/20 09:22:49;;;;;;;4.65;2.50;;;;;;;8.62;53.94;99540.53;5068585;28;20029;-21
2021/12/20 09:25:14;;;;;;;6.45;3.58;;;;;;;8.52;54.52;99508.31;5068305;28;20032;-20
2021/12/20 09:27:39;;;;;;;5.00;2.83;;;;;;;8.54;53.19;99524.84;5068355;28;20047;-20
2021/12/20 09:30:06;;;;;;;5.75;2.75;;;;;;;8.61;53.48;99525.63;5068095;28;20109;-21
2021/12/20 09:32:31;;;;;;;4.55;2.70;;;;;;;8.62;52.55;99513.94;5068153;28;20109;-20
2021/12/20 09:34:56;;;;;;;3.78;2.22;;;;;;;8.45;51.69;99497.75;5068120;28;20040;-20
2021/12/20 09:37:23;;;;;;;3.65;2.55;;;;;;;8.52;52.87;99518.94;5067783;28;20059;-21
2021/12/20 09:39:53;;;;;;;5.00;2.33;;;;;;;8.62;53.51;99514.78;5068276;28;20024;-20
2021/12/20 09:42:18;;;;;;;6.82;2.45;;;;;;;8.77;52.45;99514.41;5068020;28;20032;-21
2021/12/20 09:44:44;;;;;;;6.07;2.83;;;;;;;8.98;52.50;99530.97;5050443;28;20039;-20
2021/12/20 09:47:09;;;;;;;7.72;3.55;;;;;;;9.00;52.54;99528.91;5067806;28;20389;-21
2021/12/20 09:49:35;;;;;;;6.75;2.85;;;;;;;9.00;52.59;99510.28;5068122;28;20059;-21
2021/12/20 09:52:01;;;;;;;4.38;2.47;;;;;;;9.33;51.23;99517.06;5068058;28;20028;-22
2021/12/20 09:54:27;;;;;;;5.03;2.60;;;;;;;9.19;52.46;99519.91;5068780;28;20036;-20
2021/12/20 09:56:53;;;;;;;3.63;2.40;;;;;;;9.05;51.00;99491.81;5068098;28;20086;-20
2021/12/20 09:59:19;;;;;;;3.35;2.15;;;;;;;8.93;51.35;99478.47;5067995;28;20031;-21
2021/12/20 10:01:45;;;;;;;5.00;2.45;;;;;;;8.94;51.32;99485.38;5067698;28;20029;-20
2021/12/20 10:04:10;;;;;;;6.07;3.03;;;;;;;9.29;52.66;99518.53;5067855;28;20052;-20
2021/12/20 10:06:36;;;;;;;7.00;2.53;;;;;;;9.13;51.58;99506.66;5067802;28;20029;-20
2021/12/20 10:09:11;;;;;;;4.32;2.30;;;;;;;9.25;51.98;99532.31;5067885;28;20546;-20
2021/12/20 10:11:37;;;;;;;5.30;2.38;;;;;;;9.23;51.59;99513.09;5068082;28;20043;-21
2021/12/20 10:14:12;;;;;;;6.50;2.60;;;;;;;9.21;52.15;99520.50;5067757;28;20033;-21
2021/12/20 10:16:39;;;;;;;5.10;2.60;;;;;;;9.47;51.89;99502.53;5066919;28;20037;-21
2021/12/20 10:19:09;;;;;;;5.97;2.60;;;;;;;9.49;50.53;99531.59;5067869;28;20036;-20
2021/12/20 10:21:41;;;;;;;4.25;2.40;;;;;;;9.44;49.26;99530.44;5049892;28;20086;-21
2021/12/20 10:24:07;;;;;;;5.38;2.60;;;;;;;8.87;50.02;99497.97;5067693;28;20028;-20
2021/12/20 10:26:40;;;;;;;2.55;1.80;;;;;;;8.98;50.50;99541.59;5049678;28;20040;-20
2021/12/20 10:29:16;;;;;;;4.53;2.35;;;;;;;9.10;48.98;99505.25;5049309;28;20052;-20
2021/12/20 10:31:42;;;;;;;3.67;2.00;;;;;;;9.33;49.84;99515.19;5067662;28;20102;-20
2021/12/20 10:34:07;;;;;;;2.97;2.00;;;;;;;9.40;48.78;99507.16;5067687;28;20029;-21
2021/12/20 10:36:33;;;;;;;3.40;2.30;;;;;;;9.26;49.10;99514.50;5067613;28;20036;-20
2021/12/20 10:38:59;;;;;;;4.32;2.47;;;;;;;9.37;48.31;99502.28;5067605;28;20039;-21
2021/12/20 10:41:34;;;;;;;4.75;2.53;;;;;;;9.35;48.13;99499.81;5067177;28;20061;-20
2021/12/20 10:44:02;;;;;;;5.18;2.00;;;;;;;9.22;46.98;99484.03;5067536;28;20035;-20
2021/12/20 10:46:31;;;;;;;5.05;2.00;;;;;;;9.42;47.90;99515.72;5067385;28;20040;-20
2021/12/20 10:49:11;;;;;;;3.83;1.80;;;;;;;9.25;47.32;99503.03;5067544;28;20089;-20
2021/12/20 10:51:41;;;;;;;3.15;2.03;;;;;;;9.21;48.58;99491.22;5067219;28;20040;-21
2021/12/20 10:54:11;;;;;;;3.03;1.80;;;;;;;9.65;47.57;99504.34;5049541;28;20035;-20
2021/12/20 10:56:51;;;;;;;2.88;1.90;;;;;;;9.48;47.19;99514.00;5050049;28;20046;-20
2021/12/20 10:59:18;;;;;;;2.67;1.67;;;;;;;9.67;47.00;99496.16;5067323;28;20063;-20
2021/12/20 11:04:12;;;;;;;2.97;1.92;;;;;;;9.98;47.07;99511.03;5067300;28;20039;-20
2021/12/20 11:09:15;;;;;;;6.20;3.50;;;;;;;9.74;47.16;99480.88;5070494;28;20123;-20
2021/12/20 11:11:44;;;;;;;3.38;2.05;;;;;;;10.14;46.25;99505.06;5070540;28;20025;-20
2021/12/20 11:14:10;;;;;;;4.72;2.28;;;;;;;10.29;46.76;99517.13;5071134;28;20085;-20
2021/12/20 11:17:05;;;;;;;3.13;1.70;;;;;;;10.01;46.91;99506.09;5071144;28;20450;-20
2021/12/20 11:19:35;;;;;;;3.10;1.90;;;;;;;10.04;45.35;99518.13;5053113;28;20060;-20
2021/12/20 11:22:07;;;;;;;5.78;2.42;;;;;;;9.91;44.93;99524.47;5070607;28;20124;-20
2021/12/20 11:24:50;;;;;;;4.47;2.00;;;;;;;10.13;45.86;99526.59;5070964;28;20110;-20
2021/12/20 11:27:39;;;;;;;3.45;2.00;;;;;;;10.21;44.95;99536.91;5071038;28;20468;-20
2021/12/20 11:30:17;;;;;;;3.15;1.90;;;;;;;10.18;44.99;99550.72;5052558;28;20067;-20
2021/12/20 11:32:44;;;;;;;;;;;;;;;9.76;44.41;99537.38;5071209;28;20101;-21
2021/12/20 11:35:09;;;;;;;3.63;2.22;;;;;;;9.67;45.74;99534.22;5070558;28;20009;-20
2021/12/20 11:37:35;;;;;;;3.17;1.90;;;;;;;9.87;45.14;99568.56;5070182;28;20855;-20
2021/12/20 11:40:02;;;;;;;3.20;1.55;;;;;;;10.06;45.68;99548.81;5052867;28;20845;-20
2021/12/20 11:42:28;;;;;;;3.58;1.80;;;;;;;9.93;45.20;99548.19;5070545;28;20024;-20
2021/12/20 11:44:55;;;;;;;3.47;1.30;;;;;;;9.72;45.19;99550.31;5070523;28;20416;-20
2021/12/20 11:47:31;;;;;;;3.17;1.70;;;;;;;10.03;45.89;99554.63;5070652;28;20020;-20
2021/12/20 11:50:03;;;;;;;2.47;1.90;;;;;;;10.05;45.62;99552.53;5070522;28;20103;-21
2021/12/20 11:52:33;;;;;;;4.32;2.70;;;;;;;10.80;45.42;99558.31;5070286;28;20033;-20